OIMB  Birjand  Airport

Birjand, Iran

Add Bookmark
ICAO OIMB
Type Airport
Status Operational
Latitude
32° 53' 53" N
32.898102
Longitude
59° 15' 57" E
59.266102
Local (DST + 5) UTC (GMT + 4)
Jun 30, 2015 06:57 Jun 30, 2015 14:27
Sunrise-Sunset Local UTC
Begin Civil Twilight 04:57 00:27
Sunrise 05:26 00:56
Sunset 07:46 15:16
End Civil Twilight 08:15 15:45
VFR
VFR
MVFR
MVFR
IFR
IFR
LIFR
LIFR
Unknown
Unavailable

Current Weather

METAR Observed MVFR
OIMB 301400Z 05012KT 8000 NSC 34/M04 Q1015 Tue, Jun 30, 2015 @ 14:00 UTC
(27 Minutes ago)
Marginal Visual Flight Rules
Wind Visibility Conditions
050° at 12 knots (22 kph) 7,998 m
  • No significant weather
Temperatures Readings Precipitation
Current Temp
34°C
93°F
Dewpoint
-4°C
25°F
Humidity 8%
Altimeter 29.97" Hg
Sea Level Pressure 1,015 mb
Field Elevation
1,491 m
4,892 ft
None Recorded
-
-

CheckWX.com is intended as a tool to help pilots better visualize weather data. It is not intended as a substitute for an official weather briefing obtained from a Flight Service Station. CheckWX.com does not meet the FAA requirements for an official pre-flight weather briefing. Therefore, it's important that pilots still call and obtain an official FSS pre-flight weather briefing.

© 2007-2015 CheckWX.com
14:27:36 UTC